Time;durP1;ratioP1;P1;durP2;ratioP2;P2;SDS_P1;SDS_P2;PMS_P1;PMS_P2;Temp;Humidity;BMP_temperature;BMP_pressure;BME280_temperature;BME280_humidity;BME280_pressure;Samples;Min_cycle;Max_cycle;Signal;HPM_P1;HPM_P2
2022/09/01 00:01:41;;;;;;;6.92;1.15;;;;;;;14.43;69.41;101209.32;1737092;81;25782;-77
2022/09/01 00:04:12;;;;;;;0.82;0.60;;;;;;;14.43;69.33;101209.32;1743217;81;26573;-77
2022/09/01 00:06:39;;;;;;;1.47;0.70;;;;;;;14.40;69.44;101205.66;1738852;81;25758;-78
2022/09/01 00:09:10;;;;;;;0.85;0.55;;;;;;;14.36;69.49;101211.12;1732341;82;27544;-77
2022/09/01 00:11:39;;;;;;;;;;;;;;;14.33;69.40;101201.56;1748253;79;25844;-77
2022/09/01 00:14:07;;;;;;;2.45;0.82;;;;;;;14.30;69.56;101201.98;1729648;82;25790;-77
2022/09/01 00:16:33;;;;;;;2.77;0.93;;;;;;;14.25;69.49;101205.73;1765815;81;26604;-78
2022/09/01 00:19:01;;;;;;;2.92;0.90;;;;;;;14.22;69.67;101207.45;1769153;80;25259;-77
2022/09/01 00:21:32;;;;;;;4.17;0.80;;;;;;;14.21;69.62;101204.97;1766509;81;27473;-78
2022/09/01 00:24:00;;;;;;;2.15;0.90;;;;;;;14.18;69.54;101199.98;1751097;81;25811;-78
2022/09/01 00:26:27;;;;;;;2.95;0.90;;;;;;;14.13;69.48;101203.27;1732525;81;25720;-77
2022/09/01 00:28:54;;;;;;;1.65;0.90;;;;;;;14.09;69.46;101202.50;1734288;82;26586;-78
2022/09/01 00:31:21;;;;;;;3.02;1.42;;;;;;;14.05;69.56;101206.08;1761541;80;25680;-76
2022/09/01 00:33:50;;;;;;;5.08;1.02;;;;;;;14.02;69.59;101204.30;1774753;80;27436;-77
2022/09/01 00:36:17;;;;;;;2.98;1.00;;;;;;;14.00;69.54;101210.39;1772991;80;25809;-77
2022/09/01 00:38:44;;;;;;;1.32;0.70;;;;;;;13.96;69.51;101204.57;1754383;81;25696;-77
2022/09/01 00:41:12;;;;;;;2.15;1.15;;;;;;;13.94;69.60;101203.39;1754536;81;25779;-77
2022/09/01 00:43:43;;;;;;;4.50;2.05;;;;;;;13.91;69.65;101198.92;1745827;81;25788;-78
2022/09/01 00:46:18;;;;;;;4.10;1.72;;;;;;;13.88;69.72;101197.44;1756238;81;27444;-76
2022/09/01 00:48:49;;;;;;;2.52;1.22;;;;;;;13.87;69.65;101196.30;1736812;81;25304;-77
2022/09/01 00:51:16;;;;;;;1.80;0.90;;;;;;;13.83;69.69;101198.55;1763936;80;25295;-77
2022/09/01 00:53:44;;;;;;;5.22;1.02;;;;;;;13.78;69.72;101192.06;1762431;81;25747;-77
2022/09/01 00:56:13;;;;;;;2.50;0.80;;;;;;;13.75;69.72;101195.97;1759154;81;26679;-78
2022/09/01 00:58:40;;;;;;;2.37;0.80;;;;;;;13.72;69.75;101194.19;1770611;80;28220;-77
2022/09/01 01:01:09;;;;;;;3.17;0.90;;;;;;;13.69;69.72;101199.94;1772632;80;26063;-77
2022/09/01 01:03:36;;;;;;;2.83;1.52;;;;;;;13.65;69.84;101191.94;1771188;80;25839;-78
2022/09/01 01:06:07;;;;;;;2.40;0.78;;;;;;;13.62;69.93;101190.99;1762926;81;25837;-78
2022/09/01 01:08:37;;;;;;;1.35;0.80;;;;;;;13.57;69.94;101194.25;1762529;79;25790;-77
2022/09/01 01:11:16;;;;;;;2.17;1.00;;;;;;;13.55;69.97;101196.81;1773499;80;27534;-77
2022/09/01 01:13:53;;;;;;;3.22;0.70;;;;;;;13.45;70.08;101189.03;1773869;80;25801;-78
2022/09/01 01:16:25;;;;;;;1.92;1.10;;;;;;;13.43;69.89;101195.12;1758003;80;25809;-77
2022/09/01 01:18:52;;;;;;;2.95;1.50;;;;;;;13.38;69.93;101202.11;1751912;81;25768;-77
2022/09/01 01:24:27;;;;;;;1.72;1.20;;;;;;;13.30;70.14;101199.55;1752307;81;27465;-78
2022/09/01 01:26:58;;;;;;;1.95;0.90;;;;;;;13.25;70.22;101197.92;1772285;79;26279;-77
2022/09/01 01:29:31;;;;;;;2.67;0.72;;;;;;;13.21;70.31;101200.67;1756029;81;26453;-77
2022/09/01 01:31:58;;;;;;;3.10;1.65;;;;;;;13.18;70.32;101201.88;1747296;81;26304;-77
2022/09/01 01:34:24;;;;;;;4.28;1.50;;;;;;;13.15;70.38;101200.93;1739812;81;25896;-77
2022/09/01 01:36:52;;;;;;;1.85;1.07;;;;;;;13.11;70.50;101195.58;1756191;81;26904;-77
2022/09/01 01:39:27;;;;;;;1.05;0.80;;;;;;;13.08;70.60;101195.97;1763660;81;26119;-77
2022/09/01 01:41:54;;;;;;;1.50;1.00;;;;;;;13.05;70.75;101193.14;1732542;81;25874;-77
2022/09/01 01:44:27;;;;;;;1.67;0.98;;;;;;;13.01;70.78;101190.98;1756102;81;25786;-77
2022/09/01 01:46:56;;;;;;;3.92;0.98;;;;;;;12.95;70.85;101189.89;1736589;81;25711;-78
2022/09/01 01:49:27;;;;;;;1.30;0.80;;;;;;;12.93;71.19;101192.44;1762492;81;28238;-77
2022/09/01 01:51:56;;;;;;;4.08;1.05;;;;;;;12.89;71.36;101197.88;1762211;80;26450;-77
2022/09/01 01:54:28;;;;;;;2.00;0.90;;;;;;;12.88;71.41;101200.22;1767485;80;26179;-77
2022/09/01 01:56:56;;;;;;;1.65;1.20;;;;;;;12.85;71.54;101196.58;1756311;81;26571;-78
2022/09/01 01:59:23;;;;;;;3.22;1.00;;;;;;;12.82;71.56;101193.75;1736577;81;26596;-77
2022/09/01 02:01:50;;;;;;;1.92;1.10;;;;;;;12.80;71.54;101193.61;1755937;81;27465;-78
2022/09/01 02:04:18;;;;;;;3.05;0.98;;;;;;;12.78;71.44;101191.62;1754657;81;25801;-77
2022/09/01 02:06:47;;;;;;;3.30;1.12;;;;;;;12.73;71.39;101185.45;1727892;81;25858;-77
2022/09/01 02:09:19;;;;;;;1.45;0.80;;;;;;;12.69;71.23;101191.38;1752819;80;26471;-78
2022/09/01 02:11:45;;;;;;;1.40;0.90;;;;;;;12.64;71.22;101189.78;1723445;80;25814;-77
2022/09/01 02:14:12;;;;;;;2.05;0.95;;;;;;;12.58;71.35;101188.66;1737775;80;27992;-76
2022/09/01 02:16:40;;;;;;;1.55;0.62;;;;;;;12.51;71.31;101185.03;1775083;79;25845;-77
2022/09/01 02:19:09;;;;;;;2.42;0.80;;;;;;;12.44;71.22;101192.18;1754449;81;25768;-77
2022/09/01 02:21:35;;;;;;;1.52;0.80;;;;;;;12.39;71.33;101191.39;1765360;80;25795;-77
2022/09/01 02:24:07;;;;;;;1.20;0.62;;;;;;;12.33;71.34;101183.23;1758537;81;25764;-77
2022/09/01 02:26:38;;;;;;;1.55;0.60;;;;;;;12.27;71.23;101183.97;1752654;81;27533;-77
2022/09/01 02:29:16;;;;;;;1.40;0.50;;;;;;;12.18;71.17;101186.40;1739455;81;25910;-78
2022/09/01 02:31:40;;;;;;;1.55;0.70;;;;;;;12.09;71.09;101182.12;1754465;81;26344;-77
2022/09/01 02:34:12;;;;;;;3.20;0.65;;;;;;;12.01;71.03;101182.20;1746695;81;25765;-78
2022/09/01 02:36:41;;;;;;;;;;;;;;;11.94;71.18;101185.27;1745504;81;25781;-77
2022/09/01 02:39:06;;;;;;;1.07;0.50;;;;;;;11.88;71.33;101183.32;1752015;81;27445;-77
2022/09/01 02:41:33;;;;;;;3.70;0.70;;;;;;;11.79;71.52;101187.08;1763755;80;25678;-77
2022/09/01 02:44:01;;;;;;;2.55;0.55;;;;;;;11.76;71.48;101194.17;1719068;81;25968;-77
2022/09/01 02:46:28;;;;;;;0.90;0.60;;;;;;;11.71;71.55;101185.31;1760413;81;25803;-77
2022/09/01 02:48:56;;;;;;;3.42;0.70;;;;;;;11.68;71.57;101188.34;1756005;81;26421;-78
2022/09/01 02:51:26;;;;;;;1.10;0.50;;;;;;;11.66;71.74;101193.02;1740350;81;26939;-77
2022/09/01 02:53:53;;;;;;;1.40;0.90;;;;;;;11.59;72.56;101192.90;1754741;81;25559;-77
2022/09/01 02:56:23;;;;;;;2.15;0.88;;;;;;;11.59;72.56;101192.90;1732364;80;25938;-77
2022/09/01 02:58:50;;;;;;;1.95;1.02;;;;;;;11.59;72.29;101197.42;1760549;81;26136;-76
2022/09/01 03:01:25;;;;;;;1.70;1.20;;;;;;;11.57;72.61;101197.61;1722291;81;25756;-77
2022/09/01 03:03:58;;;;;;;1.67;0.80;;;;;;;11.55;72.56;101193.43;1716217;81;27446;-77
2022/09/01 03:06:25;;;;;;;1.92;1.00;;;;;;;11.53;72.63;101197.64;1746054;81;25920;-76
2022/09/01 03:09:00;;;;;;;2.10;1.00;;;;;;;11.52;72.60;101195.98;1763935;80;25744;-77
2022/09/01 03:11:29;;;;;;;2.45;1.25;;;;;;;11.50;72.73;101200.67;1768751;80;25774;-78
2022/09/01 03:13:56;;;;;;;2.08;0.85;;;;;;;11.48;73.06;101203.23;1756240;81;25916;-78
2022/09/01 03:16:23;;;;;;;2.85;0.80;;;;;;;11.47;73.37;101198.36;1763423;81;28626;-78
2022/09/01 03:18:51;;;;;;;2.37;0.90;;;;;;;11.47;73.36;101205.07;1718343;82;25862;-78
2022/09/01 03:21:19;;;;;;;1.37;0.90;;;;;;;11.43;73.12;101201.08;1740978;81;25864;-78
2022/09/01 03:23:49;;;;;;;0.93;0.93;;;;;;;11.39;73.01;101194.40;1754341;81;25760;-78
2022/09/01 03:26:19;;;;;;;1.60;0.80;;;;;;;11.38;73.03;101198.58;1757775;81;25900;-78
2022/09/01 03:28:48;;;;;;;3.45;1.00;;;;;;;11.34;73.04;101192.74;1746592;81;26926;-78
2022/09/01 03:31:17;;;;;;;3.10;1.20;;;;;;;11.32;73.22;101200.63;1770424;80;25793;-78
2022/09/01 03:33:45;;;;;;;1.07;0.88;;;;;;;11.30;73.51;101205.34;1762890;81;25858;-77
2022/09/01 03:36:17;;;;;;;2.35;1.20;;;;;;;11.29;73.57;101201.00;1746907;81;25791;-77
2022/09/01 03:38:42;;;;;;;2.12;1.00;;;;;;;11.26;73.48;101205.36;1737071;81;25984;-78
2022/09/01 03:41:09;;;;;;;1.82;1.00;;;;;;;11.22;73.52;101205.39;1759300;81;27467;-78
2022/09/01 03:43:35;;;;;;;0.88;0.82;;;;;;;11.15;73.12;101199.89;1762210;80;25680;-78
2022/09/01 03:46:03;;;;;;;1.60;0.90;;;;;;;11.10;73.10;101200.11;1742434;80;25862;-78
2022/09/01 03:48:31;;;;;;;1.15;0.82;;;;;;;11.06;73.05;101201.44;1761921;80;25896;-77
2022/09/01 03:51:01;;;;;;;3.98;1.20;;;;;;;11.04;73.13;101203.46;1762486;81;25833;-79
2022/09/01 03:53:36;;;;;;;5.37;1.30;;;;;;;11.02;73.44;101202.80;1764412;79;28434;-78
2022/09/01 03:56:03;;;;;;;2.37;1.10;;;;;;;11.00;73.62;101200.30;1747362;79;25783;-78
2022/09/01 03:58:32;;;;;;;3.10;0.98;;;;;;;10.99;73.92;101201.83;1764173;81;25840;-78
2022/09/01 04:01:01;;;;;;;2.98;0.85;;;;;;;10.95;73.85;101201.33;1717993;81;25873;-78
2022/09/01 04:03:33;;;;;;;3.77;1.15;;;;;;;10.88;73.65;101199.84;1764611;81;26173;-77
2022/09/01 04:06:01;;;;;;;5.28;1.10;;;;;;;10.84;74.01;101199.86;1775589;80;27452;-78
2022/09/01 04:08:29;;;;;;;2.77;0.75;;;;;;;10.82;74.35;101195.19;1759341;81;25765;-77
2022/09/01 04:11:01;;;;;;;1.05;0.90;;;;;;;10.81;74.34;101194.03;1778700;79;25715;-78
2022/09/01 04:13:34;;;;;;;2.40;0.98;;;;;;;10.78;74.35;101197.88;1769355;79;25764;-78
2022/09/01 04:16:02;;;;;;;2.02;1.10;;;;;;;10.77;74.34;101203.42;1771724;79;25795;-77
2022/09/01 04:18:29;;;;;;;2.08;1.10;;;;;;;10.75;74.53;101199.59;1779279;79;27432;-77
2022/09/01 04:20:58;;;;;;;2.92;1.40;;;;;;;10.75;74.70;101197.41;1758710;79;25696;-78
2022/09/01 04:23:34;;;;;;;1.42;1.32;;;;;;;10.73;74.79;101192.20;1732073;81;25716;-78
2022/09/01 04:26:09;;;;;;;3.52;1.40;;;;;;;10.74;74.92;101192.55;1739047;81;25844;-78
2022/09/01 04:28:49;;;;;;;2.52;1.32;;;;;;;10.74;75.12;101193.04;1766869;79;25768;-77
2022/09/01 04:31:20;;;;;;;3.77;1.40;;;;;;;10.72;75.14;101194.56;1768057;80;27468;-79
2022/09/01 04:33:51;;;;;;;3.75;1.05;;;;;;;10.71;75.28;101193.41;1738331;80;26131;-78
2022/09/01 04:36:26;;;;;;;6.53;1.20;;;;;;;10.71;75.31;101198.77;1769392;80;25757;-78
2022/09/01 04:38:57;;;;;;;5.05;1.15;;;;;;;10.70;75.26;101195.23;1766741;80;26708;-78
2022/09/01 04:41:30;;;;;;;1.98;1.15;;;;;;;10.69;75.37;101201.59;1767321;80;25742;-78
2022/09/01 04:44:04;;;;;;;1.62;1.07;;;;;;;10.69;75.66;101201.59;1762546;80;28271;-77
2022/09/01 04:46:36;;;;;;;2.02;1.20;;;;;;;10.69;75.81;101204.27;1779006;79;26415;-78
2022/09/01 04:49:07;;;;;;;3.58;1.05;;;;;;;10.70;76.19;101205.95;1764038;81;25731;-78
2022/09/01 04:51:34;;;;;;;5.92;1.30;;;;;;;10.69;76.52;101205.61;1744572;81;26013;-78
2022/09/01 04:54:01;;;;;;;1.82;1.02;;;;;;;10.69;76.83;101210.16;1765104;81;25905;-78
2022/09/01 04:56:29;;;;;;;2.58;1.35;;;;;;;10.69;77.26;101212.31;1765211;81;28295;-79
2022/09/01 04:59:05;;;;;;;2.55;1.35;;;;;;;10.73;77.53;101213.63;1760025;81;25767;-78
2022/09/01 05:01:29;;;;;;;4.92;1.50;;;;;;;10.77;77.81;101208.28;1778793;79;25774;-78
2022/09/01 05:04:00;;;;;;;2.15;1.52;;;;;;;10.82;77.90;101206.40;1783676;79;25949;-78
2022/09/01 05:06:42;;;;;;;3.25;1.42;;;;;;;10.88;78.03;101212.43;1764049;81;26944;-78
2022/09/01 05:09:11;;;;;;;2.30;1.60;;;;;;;10.95;78.33;101212.05;1767229;79;27429;-78
2022/09/01 05:11:49;;;;;;;2.33;1.75;;;;;;;11.01;78.96;101208.69;1774228;79;25885;-78
2022/09/01 05:14:17;;;;;;;4.17;1.85;;;;;;;11.05;79.22;101214.03;1764809;81;26033;-79
2022/09/01 05:16:44;;;;;;;4.00;1.90;;;;;;;11.08;79.58;101212.32;1765881;80;25828;-78
2022/09/01 05:19:16;;;;;;;7.28;3.75;;;;;;;11.14;79.98;101214.30;1767106;79;26138;-78
2022/09/01 05:21:46;;;;;;;8.25;2.05;;;;;;;11.21;80.14;101216.61;1767533;79;27450;-78
2022/09/01 05:24:17;;;;;;;1.90;1.45;;;;;;;11.28;80.24;101214.91;1748556;80;25891;-78
2022/09/01 05:26:49;;;;;;;3.50;1.80;;;;;;;11.35;80.39;101209.18;1751571;81;25800;-78
2022/09/01 05:29:17;;;;;;;3.17;2.02;;;;;;;11.42;80.61;101210.62;1767193;80;26590;-78
2022/09/01 05:31:48;;;;;;;5.92;2.00;;;;;;;11.51;80.88;101217.11;1768436;80;25537;-78
2022/09/01 05:34:21;;;;;;;5.72;1.22;;;;;;;11.56;81.28;101206.69;1768885;80;28224;-78
2022/09/01 05:36:49;;;;;;;2.55;1.70;;;;;;;11.62;81.58;101206.47;1775168;80;26393;-79
2022/09/01 05:39:13;;;;;;;5.42;1.90;;;;;;;11.67;81.94;101207.31;1765493;80;25274;-78
2022/09/01 05:41:41;;;;;;;3.77;1.85;;;;;;;11.71;82.15;101197.88;1768113;80;25840;-78
2022/09/01 05:44:10;;;;;;;2.83;1.37;;;;;;;11.77;82.34;101199.84;1766316;80;25871;-78
2022/09/01 05:46:38;;;;;;;4.72;1.90;;;;;;;11.87;82.55;101192.41;1776029;80;27432;-79
2022/09/01 05:49:12;;;;;;;3.67;1.92;;;;;;;11.96;82.66;101200.69;1775160;80;25807;-78
2022/09/01 05:51:36;;;;;;;2.05;1.50;;;;;;;12.06;82.72;101195.92;1743631;81;25776;-77
2022/09/01 05:54:06;;;;;;;3.45;1.35;;;;;;;12.17;82.83;101194.12;1747039;81;25793;-78
2022/09/01 05:56:32;;;;;;;3.50;1.35;;;;;;;12.26;82.63;101192.53;1778392;79;26416;-77
2022/09/01 05:59:01;;;;;;;2.02;1.20;;;;;;;12.37;82.91;101201.98;1719684;82;28301;-78
2022/09/01 06:01:29;;;;;;;2.00;1.60;;;;;;;12.48;82.97;101206.91;1762621;81;25849;-78
2022/09/01 06:03:56;;;;;;;4.70;1.45;;;;;;;12.59;83.13;101201.59;1732179;81;26168;-78
2022/09/01 06:06:29;;;;;;;2.50;1.60;;;;;;;12.69;83.21;101203.48;1760613;81;25971;-78
2022/09/01 06:08:58;;;;;;;2.02;1.42;;;;;;;12.78;83.17;101206.41;1767435;80;25839;-78
2022/09/01 06:11:27;;;;;;;1.80;1.25;;;;;;;12.92;83.42;101209.58;1775677;80;27475;-79
2022/09/01 06:13:54;;;;;;;3.83;1.47;;;;;;;13.03;83.78;101211.80;1771347;79;25923;-77
2022/09/01 06:16:23;;;;;;;6.67;1.52;;;;;;;13.14;83.49;101211.35;1752314;81;25291;-78
2022/09/01 06:18:52;;;;;;;4.03;1.35;;;;;;;13.27;83.42;101211.52;1755450;81;25781;-78
2022/09/01 06:21:23;;;;;;;2.70;1.50;;;;;;;13.38;83.31;101207.50;1761920;80;25716;-77
2022/09/01 06:23:54;;;;;;;1.92;1.02;;;;;;;13.50;83.14;101198.73;1737240;81;27542;-78
2022/09/01 06:26:30;;;;;;;3.33;1.52;;;;;;;13.60;83.01;101199.23;1768564;80;25972;-78
2022/09/01 06:29:03;;;;;;;1.37;1.00;;;;;;;13.66;82.70;101193.11;1774346;80;25879;-78
2022/09/01 06:31:34;;;;;;;1.87;1.12;;;;;;;13.77;82.96;101207.38;1736450;81;25826;-78
2022/09/01 06:34:04;;;;;;;3.27;1.30;;;;;;;13.86;82.73;101203.53;1765633;80;26518;-78
2022/09/01 06:36:39;;;;;;;4.47;1.10;;;;;;;13.97;82.57;101190.56;1747516;81;27525;-78
2022/09/01 06:39:04;;;;;;;2.42;1.10;;;;;;;14.07;82.55;101195.94;1730317;80;25819;-78
2022/09/01 06:41:31;;;;;;;2.75;1.15;;;;;;;14.18;82.12;101199.45;1745433;80;25909;-78
2022/09/01 06:44:00;;;;;;;3.47;1.02;;;;;;;14.26;81.84;101201.19;1762514;80;26584;-77
2022/09/01 06:46:28;;;;;;;2.83;0.68;;;;;;;14.33;81.50;101201.56;1780150;79;25736;-78
2022/09/01 06:48:57;;;;;;;2.15;0.75;;;;;;;14.43;81.46;101204.77;1772995;79;28331;-78
2022/09/01 06:51:30;;;;;;;3.90;0.82;;;;;;;14.48;81.16;101209.03;1780201;78;25684;-78
2022/09/01 06:53:58;;;;;;;1.75;0.90;;;;;;;14.58;81.19;101208.70;1744188;81;25739;-77
2022/09/01 06:56:30;;;;;;;3.10;1.00;;;;;;;14.69;80.74;101214.89;1760238;80;26415;-78
2022/09/01 06:58:57;;;;;;;2.30;0.90;;;;;;;14.80;80.52;101214.30;1730084;81;26520;-78
2022/09/01 07:01:26;;;;;;;2.90;0.98;;;;;;;14.88;79.85;101211.47;1738283;80;28245;-79
2022/09/01 07:03:55;;;;;;;1.95;0.82;;;;;;;14.99;80.15;101211.41;1742711;81;25807;-79
2022/09/01 07:06:42;;;;;;;1.50;0.75;;;;;;;15.08;79.96;101208.84;1737327;81;26521;-79
2022/09/01 07:09:19;;;;;;;2.92;1.07;;;;;;;15.15;79.13;101206.50;1698328;82;25798;-78
2022/09/01 07:11:47;;;;;;;3.40;1.30;;;;;;;15.25;79.33;101197.50;1739941;81;25892;-78
2022/09/01 07:14:15;;;;;;;4.92;1.50;;;;;;;15.37;79.47;101203.16;1758451;81;26937;-78
2022/09/01 07:16:42;;;;;;;3.17;1.12;;;;;;;15.46;78.77;101195.73;1757253;81;26490;-78
2022/09/01 07:19:14;;;;;;;3.98;1.10;;;;;;;15.54;78.78;101192.84;1725282;82;25805;-78
2022/09/01 07:21:52;;;;;;;2.47;0.90;;;;;;;15.64;78.89;101201.36;1734849;81;25809;-78
2022/09/01 07:24:19;;;;;;;4.12;1.55;;;;;;;15.74;78.57;101201.27;1755539;81;25268;-78
2022/09/01 07:27:04;;;;;;;3.65;1.07;;;;;;;15.83;78.47;101203.26;1776566;79;27379;-77
2022/09/01 07:29:31;;;;;;;2.65;0.70;;;;;;;15.93;78.63;101207.22;1774877;79;25926;-78
2022/09/01 07:31:58;;;;;;;4.58;0.60;;;;;;;16.02;77.88;101211.39;1748438;79;26132;-78
2022/09/01 07:34:26;;;;;;;3.55;1.00;;;;;;;16.10;77.16;101211.72;1774617;79;25727;-77
2022/09/01 07:36:58;;;;;;;2.87;0.68;;;;;;;16.18;77.79;101207.45;1769263;80;25750;-78
2022/09/01 07:39:21;;;;;;;3.30;0.82;;;;;;;16.26;77.06;101200.98;1765976;80;28277;-77
2022/09/01 07:41:50;;;;;;;1.50;0.68;;;;;;;16.34;75.91;101210.26;1763021;80;25895;-78
2022/09/01 07:44:21;;;;;;;1.45;0.50;;;;;;;16.44;76.40;101210.66;1721336;80;26560;-77
2022/09/01 07:47:08;;;;;;;1.98;0.53;;;;;;;16.51;74.99;101207.46;1773236;78;26273;-77
2022/09/01 07:49:36;;;;;;;2.62;0.47;;;;;;;16.53;74.12;101206.18;1788296;79;25786;-77
2022/09/01 07:52:06;;;;;;;0.90;0.50;;;;;;;16.60;74.44;101209.72;1758020;80;27674;-77
2022/09/01 07:54:33;;;;;;;0.70;0.40;;;;;;;16.71;74.48;101212.29;1779997;79;25535;-77
2022/09/01 07:57:00;;;;;;;1.05;0.40;;;;;;;16.80;73.93;101217.79;1733294;81;25716;-77
2022/09/01 07:59:28;;;;;;;2.10;0.30;;;;;;;16.89;72.64;101211.11;1715286;82;25986;-77
2022/09/01 08:02:04;;;;;;;0.68;0.33;;;;;;;16.95;72.84;101205.67;1761575;80;25888;-77
2022/09/01 08:04:32;;;;;;;1.50;0.50;;;;;;;17.04;72.12;101210.33;1754177;81;27434;-78
2022/09/01 08:06:59;;;;;;;1.95;0.50;;;;;;;17.15;71.89;101214.25;1763385;79;26548;-77
2022/09/01 08:09:27;;;;;;;1.30;0.33;;;;;;;17.25;70.88;101200.55;1759374;80;26530;-78
2022/09/01 08:11:54;;;;;;;2.67;0.50;;;;;;;17.32;70.90;101201.88;1757610;80;25940;-77
2022/09/01 08:14:20;;;;;;;1.52;0.47;;;;;;;17.37;69.82;101203.39;1758732;79;25772;-77
2022/09/01 08:16:49;;;;;;;1.82;0.40;;;;;;;17.45;70.63;101204.52;1781359;79;26981;-78
2022/09/01 08:19:17;;;;;;;0.65;0.28;;;;;;;17.54;69.09;101202.71;1752566;79;25813;-78
2022/09/01 08:22:02;;;;;;;1.45;0.50;;;;;;;17.62;68.98;101194.31;1752131;81;26449;-77
2022/09/01 08:24:30;;;;;;;1.30;0.50;;;;;;;17.75;68.62;101188.52;1752383;79;25779;-78
2022/09/01 08:26:57;;;;;;;1.12;0.57;;;;;;;17.75;68.13;101189.33;1756329;81;26458;-78
2022/09/01 08:29:23;;;;;;;1.00;0.35;;;;;;;17.70;67.99;101195.44;1780427;79;28284;-78
2022/09/01 08:31:50;;;;;;;1.10;0.40;;;;;;;17.65;66.94;101191.70;1778027;79;25783;-77
2022/09/01 08:34:16;;;;;;;1.80;0.40;;;;;;;17.63;67.04;101195.16;1772654;79;25779;-77
2022/09/01 08:36:43;;;;;;;2.98;0.30;;;;;;;17.63;66.62;101194.64;1768945;80;25942;-78
2022/09/01 08:39:10;;;;;;;4.08;0.60;;;;;;;17.69;66.19;101191.05;1749592;79;26398;-77
2022/09/01 08:42:06;;;;;;;0.98;0.40;;;;;;;17.66;65.74;101185.25;1772603;80;28610;-77
2022/09/01 08:45:05;;;;;;;0.53;0.23;;;;;;;17.60;65.63;101204.54;1733807;80;25761;-77
2022/09/01 08:47:31;;;;;;;1.75;0.20;;;;;;;17.50;65.36;101204.71;1752674;81;26310;-76
2022/09/01 08:49:59;;;;;;;1.17;0.42;;;;;;;17.37;65.61;101193.40;1767735;80;26776;-79
2022/09/01 08:52:47;;;;;;;1.02;0.70;;;;;;;17.42;65.58;101192.75;1670260;84;26059;-78
2022/09/01 08:55:39;;;;;;;1.47;0.55;;;;;;;17.51;65.74;101195.55;1763366;81;27447;-77
2022/09/01 08:58:08;;;;;;;2.22;0.33;;;;;;;17.67;64.71;101191.80;1761647;80;25747;-78
2022/09/01 09:01:04;;;;;;;3.87;0.40;;;;;;;17.83;65.50;101194.51;1765630;80;25755;-76
2022/09/01 09:03:56;;;;;;;1.22;0.40;;;;;;;17.83;64.01;101196.38;1773730;79;25766;-77
2022/09/01 09:06:32;;;;;;;0.62;0.40;;;;;;;17.64;63.17;101207.66;1771420;79;43390;-77
2022/09/01 09:09:08;;;;;;;1.05;0.40;;;;;;;17.39;63.29;101204.84;1772921;80;28291;-77
2022/09/01 09:12:18;;;;;;;0.62;0.30;;;;;;;17.27;63.57;101212.00;1751277;81;25911;-76
2022/09/01 09:14:59;;;;;;;0.53;0.30;;;;;;;17.27;63.95;101205.23;1777621;79;25786;-79
2022/09/01 09:17:33;;;;;;;0.60;0.30;;;;;;;17.47;64.83;101194.30;1767913;80;26548;-77
2022/09/01 09:20:02;;;;;;;2.15;0.47;;;;;;;17.74;63.20;101191.75;1766448;80;25929;-78
2022/09/01 09:22:28;;;;;;;2.05;0.40;;;;;;;17.96;62.91;101192.22;1754394;81;27526;-77
2022/09/01 09:25:16;;;;;;;0.80;0.45;;;;;;;18.05;63.08;101189.55;1763058;80;25743;-78
2022/09/01 09:27:46;;;;;;;0.75;0.45;;;;;;;18.10;62.08;101189.17;1759873;81;25732;-77
2022/09/01 09:30:26;;;;;;;0.70;0.28;;;;;;;18.05;62.29;101196.33;1736161;81;25829;-78
2022/09/01 09:33:03;;;;;;;0.50;0.33;;;;;;;18.03;61.31;101195.69;1760867;80;25780;-77
2022/09/01 09:35:35;;;;;;;2.45;0.30;;;;;;;17.94;60.91;101196.48;1774614;80;28292;-76
2022/09/01 09:38:27;;;;;;;0.90;0.37;;;;;;;17.86;61.61;101196.77;1772277;80;25732;-78
2022/09/01 09:41:07;;;;;;;2.72;0.35;;;;;;;17.79;61.60;101191.09;1753839;81;25848;-78
2022/09/01 09:43:39;;;;;;;1.37;0.30;;;;;;;17.76;62.02;101188.30;1753135;81;25765;-77
2022/09/01 09:46:38;;;;;;;1.62;0.50;;;;;;;17.81;62.57;101181.70;1727287;81;25920;-78
2022/09/01 09:49:19;;;;;;;0.70;0.30;;;;;;;17.91;62.29;101176.61;1758144;81;27528;-77
2022/09/01 09:51:56;;;;;;;0.68;0.42;;;;;;;18.06;62.29;101183.89;1752749;81;25835;-78
2022/09/01 09:54:27;;;;;;;0.82;0.42;;;;;;;18.19;62.23;101181.59;1752593;80;25830;-78
2022/09/01 09:57:12;;;;;;;3.75;0.45;;;;;;;18.23;61.40;101185.52;1766569;80;26431;-78
2022/09/01 09:59:52;;;;;;;1.05;0.37;;;;;;;18.15;61.10;101177.67;1752118;81;25823;-78
2022/09/01 10:02:36;;;;;;;0.40;0.30;;;;;;;18.18;61.05;101178.56;1755600;81;28270;-77
2022/09/01 10:05:37;;;;;;;0.98;0.35;;;;;;;18.29;61.25;101172.41;1756658;81;26435;-78
2022/09/01 10:08:11;;;;;;;0.42;0.28;;;;;;;18.28;60.16;101181.07;1758592;81;25852;-77
2022/09/01 10:10:49;;;;;;;0.40;0.30;;;;;;;18.29;60.71;101174.61;1768818;79;26255;-78
2022/09/01 10:13:20;;;;;;;0.70;0.20;;;;;;;18.41;60.90;101174.72;1772663;80;25838;-78
2022/09/01 10:15:49;;;;;;;;;;;;;;;18.55;59.68;101161.86;1782071;79;28789;-78
2022/09/01 10:18:20;;;;;;;2.40;0.10;;;;;;;18.67;59.23;101176.36;1761479;81;26207;-77
2022/09/01 10:21:21;;;;;;;0.45;0.20;;;;;;;18.72;59.57;101170.54;1768502;80;25734;-78
2022/09/01 10:23:47;;;;;;;0.82;0.20;;;;;;;18.71;58.12;101177.00;1751415;81;35144;-78
2022/09/01 10:26:25;;;;;;;1.07;0.40;;;;;;;18.55;57.32;101181.69;1758543;81;25246;-78
2022/09/01 10:28:58;;;;;;;0.53;0.28;;;;;;;18.58;57.12;101172.27;1768750;80;27970;-77
2022/09/01 10:31:25;;;;;;;0.80;0.33;;;;;;;18.66;57.42;101173.33;1766069;80;25267;-77
2022/09/01 10:33:52;;;;;;;0.33;0.20;;;;;;;18.79;57.98;101163.16;1770394;80;25969;-77
2022/09/01 10:36:21;;;;;;;0.10;0.10;;;;;;;18.93;56.66;101171.95;1731530;81;25896;-78
2022/09/01 10:38:48;;;;;;;0.50;0.20;;;;;;;18.89;56.43;101170.23;1769379;80;25295;-77
2022/09/01 10:41:55;;;;;;;0.40;0.20;;;;;;;18.84;56.42;101171.98;1773323;80;27471;-77
2022/09/01 10:44:33;;;;;;;1.30;0.20;;;;;;;18.88;56.18;101171.27;1735375;81;25768;-77
2022/09/01 10:47:12;;;;;;;0.80;0.20;;;;;;;19.04;56.65;101174.75;1762372;81;25298;-77
2022/09/01 10:49:49;;;;;;;0.78;0.23;;;;;;;19.16;55.48;101174.27;1752816;81;25829;-78
2022/09/01 10:52:44;;;;;;;0.30;0.20;;;;;;;19.13;55.00;101173.91;1784320;79;25803;-78
2022/09/01 10:55:31;;;;;;;2.17;0.33;;;;;;;19.11;54.65;101167.36;1770114;79;28669;-78
2022/09/01 10:58:09;;;;;;;0.45;0.20;;;;;;;19.15;54.11;101168.55;1754724;81;25855;-78
2022/09/01 11:00:46;;;;;;;1.70;0.20;;;;;;;19.25;54.61;101168.83;1773807;79;25760;-78
2022/09/01 11:03:20;;;;;;;0.55;0.20;;;;;;;19.39;54.75;101155.09;1754637;81;25950;-85
2022/09/01 11:06:00;;;;;;;1.45;0.30;;;;;;;19.48;54.71;101159.95;1753262;81;25790;-78
2022/09/01 11:08:32;;;;;;;0.47;0.20;;;;;;;19.37;53.25;101166.20;1762749;81;27909;-78
2022/09/01 11:11:28;;;;;;;1.57;0.20;;;;;;;19.29;52.95;101165.11;1751851;81;25940;-78
2022/09/01 11:13:59;;;;;;;0.55;0.20;;;;;;;19.22;53.37;101165.20;1730240;81;25743;-79
2022/09/01 11:16:38;;;;;;;0.10;0.10;;;;;;;19.14;52.91;101170.95;1775964;79;25854;-78
2022/09/01 11:19:33;;;;;;;0.95;0.20;;;;;;;19.12;52.86;101170.88;1735597;81;25970;-78
2022/09/01 11:22:43;;;;;;;0.50;0.15;;;;;;;19.20;53.06;101165.16;1748041;80;27545;-77
2022/09/01 11:25:15;;;;;;;0.72;0.20;;;;;;;19.34;53.16;101168.01;1764174;79;25677;-77
2022/09/01 11:27:53;;;;;;;2.20;0.28;;;;;;;19.45;51.52;101170.47;1740534;81;25783;-77
2022/09/01 11:30:33;;;;;;;1.10;0.20;;;;;;;19.38;50.11;101158.34;1750431;80;26210;-78
2022/09/01 11:33:17;;;;;;;1.62;0.30;;;;;;;19.43;51.04;101165.27;1749381;80;25976;-78
2022/09/01 11:35:45;;;;;;;1.05;0.20;;;;;;;19.55;50.72;101155.26;1754885;79;28385;-77
2022/09/01 11:38:15;;;;;;;0.75;0.17;;;;;;;19.69;50.97;101163.53;1771373;79;26070;-77
2022/09/01 11:40:49;;;;;;;0.95;0.20;;;;;;;19.82;50.57;101166.56;1754585;81;25760;-77
2022/09/01 11:43:16;;;;;;;0.50;0.10;;;;;;;19.93;50.58;101163.85;1755152;81;26616;-78
2022/09/01 11:45:54;;;;;;;0.50;0.25;;;;;;;20.00;50.49;101168.66;1756027;81;25861;-79
2022/09/01 11:48:21;;;;;;;0.90;0.17;;;;;;;20.07;49.48;101170.44;1752849;81;27458;-78
2022/09/01 11:50:53;;;;;;;1.40;0.20;;;;;;;20.12;49.56;101157.80;1760848;79;26571;-78
2022/09/01 11:53:23;;;;;;;2.05;0.20;;;;;;;20.15;48.91;101161.39;1764179;80;26266;-77